Terminal Aerodrome Forecast
Issued by NWS Blacksburg, VA

Current Version | Previous Version | Text Only | Print | Product List | Glossary Off
Versions: 1 2 3 4 5 6 7 8 9 10 11 12 13 14 15 16 17 18 19 20 21 22 23 24 25 26 27 28 29 30 31 32 33 34 35 36 37 38 39 40 41 42 43 44 45 46 47 48 49

000
FTUS41 KRNK 212340
TAFBLF
TAF
KBLF 212340Z 2200/2224 15004KT P6SM SCT030
     FM220400 14004KT P6SM OVC030
     FM220800 13005KT P6SM OVC018
      TEMPO 2210/2214 5SM -RA BR OVC015
     FM221700 14005KT P6SM OVC025=

USA.gov is the U.S. government's official web portal to all federal, state and local government web resources and services.